Time;durP1;ratioP1;P1;durP2;ratioP2;P2;SDS_P1;SDS_P2;PMS_P1;PMS_P2;Temp;Humidity;BMP_temperature;BMP_pressure;BME280_temperature;BME280_humidity;BME280_pressure;Samples;Min_cycle;Max_cycle;Signal;HPM_P1;HPM_P2
2023/12/01 00:02:31;;;;;;;98.60;38.90;;;;;;;-5.73;100.00;99348.12;213951;1290;139155;-76
2023/12/01 00:20:35;;;;;;;77.70;30.40;;;;;;;-5.89;100.00;99343.47;213113;1290;140921;-76
2023/12/01 00:26:36;;;;;;;72.20;31.00;;;;;;;-5.96;100.00;99347.59;212084;1286;140852;-78
2023/12/01 00:32:26;;;;;;;;;;;;;;;;;;;;;
2023/12/01 00:38:28;;;;;;;73.00;31.20;;;;;;;-6.18;100.00;99361.28;212916;1291;151829;-77
2023/12/01 00:44:16;;;;;;;69.50;29.50;;;;;;;-6.21;100.00;99370.60;212965;1292;139172;-76
2023/12/01 00:50:16;;;;;;;67.80;29.00;;;;;;;-6.26;100.00;99368.69;212203;1287;142340;-76
2023/12/01 00:56:18;;;;;;;72.60;27.80;;;;;;;-6.36;100.00;99363.50;213002;1291;139778;-76
2023/12/01 01:02:17;;;;;;;52.50;24.30;;;;;;;-6.38;100.00;99370.06;212856;1291;139236;-76
2023/12/01 01:14:20;;;;;;;60.00;25.50;;;;;;;-6.42;100.00;99377.46;213540;1289;139644;-76
2023/12/01 01:20:21;;;;;;;64.80;27.50;;;;;;;-6.47;100.00;99375.84;212940;1287;140936;-76
2023/12/01 01:26:23;;;;;;;83.50;31.00;;;;;;;-6.56;100.00;99373.55;212757;1289;139200;-77
2023/12/01 01:38:24;;;;;;;105.90;38.80;;;;;;;-6.64;100.00;99366.90;212347;1286;140915;-76
2023/12/01 01:44:25;;;;;;;70.90;31.70;;;;;;;-6.69;100.00;99369.65;213973;1291;139528;-76
2023/12/01 01:56:28;;;;;;;86.60;33.10;;;;;;;-6.82;100.00;99379.83;212460;1292;141046;-76
2023/12/01 02:02:28;;;;;;;111.00;37.60;;;;;;;-6.88;100.00;99384.14;215995;1288;139686;-76
2023/12/01 02:08:30;;;;;;;119.50;41.30;;;;;;;-6.90;100.00;99384.38;213326;1286;140660;-76
2023/12/01 02:14:29;;;;;;;;;;;;;;;;;;;;;
2023/12/01 02:20:32;;;;;;;109.20;36.80;;;;;;;-7.00;100.00;99391.27;213551;1290;140294;-77
2023/12/01 02:26:33;;;;;;;200.40;54.90;;;;;;;-7.07;100.00;99395.95;212182;1292;141742;-76
2023/12/01 02:32:34;;;;;;;182.70;59.30;;;;;;;-7.16;100.00;99401.73;213754;1288;139344;-76
2023/12/01 02:38:35;;;;;;;176.40;53.90;;;;;;;-7.22;100.00;99408.23;217854;1289;141995;-76
2023/12/01 02:44:36;;;;;;;147.70;48.70;;;;;;;-7.30;100.00;99405.87;212785;1291;140283;-76
2023/12/01 02:50:37;;;;;;;104.30;39.70;;;;;;;-7.37;100.00;99402.84;212359;1292;141470;-76
2023/12/01 02:56:39;;;;;;;115.10;40.10;;;;;;;-7.38;100.00;99400.40;217595;1285;141462;-76
2023/12/01 03:02:32;;;;;;;;;;;;;;;;;;;;;
2023/12/01 03:08:33;;;;;;;103.90;40.00;;;;;;;-7.55;100.00;99392.52;213453;1291;141459;-77
2023/12/01 03:14:35;;;;;;;85.20;37.40;;;;;;;-7.52;100.00;99394.52;212676;1286;139492;-76
2023/12/01 03:20:36;;;;;;;96.80;42.10;;;;;;;-7.55;100.00;99390.38;213129;1290;140959;-75
2023/12/01 03:26:36;;;;;;;;;;;;;;;;;;;;;
2023/12/01 03:32:30;;;;;;;;;;;;;;;;;;;;;
2023/12/01 03:38:32;;;;;;;199.40;64.50;;;;;;;-7.64;100.00;99387.77;212512;1289;141132;-76
2023/12/01 03:44:34;;;;;;;182.50;61.10;;;;;;;-7.67;100.00;99383.64;212804;1286;139416;-76
2023/12/01 03:50:34;;;;;;;172.50;56.60;;;;;;;-7.69;100.00;99389.75;212039;1286;140972;-76
2023/12/01 03:56:36;;;;;;;154.20;51.60;;;;;;;-7.78;100.00;99392.56;212335;1291;141075;-77
2023/12/01 04:02:21;;;;;;;159.70;50.50;;;;;;;-7.80;100.00;99392.79;212706;1286;139921;-76
2023/12/01 04:08:23;;;;;;;142.00;55.40;;;;;;;-7.85;100.00;99388.15;212191;1289;141666;-76
2023/12/01 04:14:24;;;;;;;191.70;57.60;;;;;;;-7.89;100.00;99384.92;212409;1291;139904;-76
2023/12/01 04:20:25;;;;;;;162.80;53.50;;;;;;;-7.97;100.00;99385.87;211887;1291;140329;-76
2023/12/01 04:26:28;;;;;;;124.50;43.20;;;;;;;-7.99;100.00;99389.46;211925;1291;140799;-77
2023/12/01 04:32:28;;;;;;;110.60;41.40;;;;;;;-8.04;100.00;99391.96;212632;1286;140549;-76
2023/12/01 04:38:29;;;;;;;107.90;41.30;;;;;;;-8.07;100.00;99393.33;212091;1291;141338;-77
2023/12/01 04:44:30;;;;;;;110.00;42.70;;;;;;;-8.09;100.00;99397.88;212508;1289;139894;-76
2023/12/01 04:56:14;;;;;;;;;;;;;;;;;;;;;
2023/12/01 05:02:16;;;;;;;88.20;35.50;;;;;;;-8.18;100.00;99399.62;212434;1286;140388;-76
2023/12/01 05:07:53;;;;;;;;;;;;;;;;;;;;;
2023/12/01 05:13:55;;;;;;;82.00;33.70;;;;;;;-8.17;100.00;99420.48;212543;1287;142212;-76
2023/12/01 05:19:56;;;;;;;86.10;35.20;;;;;;;-8.26;100.00;99423.63;211918;1286;140887;-77
2023/12/01 05:25:37;;;;;;;;;;;;;;;;;;;;;
2023/12/01 05:31:39;;;;;;;79.60;33.60;;;;;;;-8.37;100.00;99447.08;212874;1286;139660;-78
2023/12/01 05:37:38;;;;;;;;;;;;;;;;;;;;;
2023/12/01 05:43:39;;;;;;;70.20;28.70;;;;;;;-8.35;100.00;99453.30;212742;1290;139694;-76
2023/12/01 05:49:40;;;;;;;66.30;29.40;;;;;;;-8.35;100.00;99452.36;212379;1286;140982;-78
2023/12/01 05:55:34;;;;;;;;;;;;;;;;;;;;;
2023/12/01 06:01:21;;;;;;;;;;;;;;;;;;;;;
2023/12/01 06:07:22;;;;;;;56.00;26.40;;;;;;;-8.52;100.00;99456.07;212198;1286;142175;-77
2023/12/01 06:13:22;;;;;;;54.30;25.80;;;;;;;-8.51;100.00;99453.20;212389;1286;139673;-77
2023/12/01 06:19:04;;;;;;;66.60;27.50;;;;;;;-8.50;100.00;99467.92;212366;1286;140661;-77
2023/12/01 06:24:54;;;;;;;;;;;;;;;;;;;;;
2023/12/01 06:36:49;;;;;;;95.30;33.90;;;;;;;-8.52;100.00;99467.27;212031;1286;141333;-77
2023/12/01 06:42:43;;;;;;;134.80;43.60;;;;;;;-8.52;100.00;99463.60;212706;1291;140214;-77
2023/12/01 06:48:43;;;;;;;74.50;32.70;;;;;;;-8.52;100.00;99468.13;212188;1286;141280;-78
2023/12/01 06:54:35;;;;;;;86.40;35.20;;;;;;;-8.57;100.00;99469.03;212351;1291;140283;-75
2023/12/01 07:06:48;;;;;;;;;;;;;;;;;;;;;
2023/12/01 07:12:50;;;;;;;135.00;54.40;;;;;;;-8.54;100.00;99485.70;213064;1288;139302;-75
2023/12/01 07:18:44;;;;;;;139.80;55.90;;;;;;;-8.56;100.00;99493.29;212561;1288;141279;-75
2023/12/01 07:24:27;;;;;;;;;;;;;;;;;;;;;
2023/12/01 07:30:29;;;;;;;100.00;42.50;;;;;;;-8.55;100.00;99503.42;212721;1291;141590;-75
2023/12/01 07:36:29;;;;;;;107.30;43.10;;;;;;;-8.55;100.00;99508.91;212013;1288;141711;-75
2023/12/01 07:48:32;;;;;;;88.60;37.30;;;;;;;-8.48;100.00;99516.13;212012;1289;142755;-75
2023/12/01 07:54:31;;;;;;;83.00;36.20;;;;;;;-8.43;100.00;99528.42;213026;1291;139766;-75
2023/12/01 08:00:31;;;;;;;87.70;38.10;;;;;;;-8.40;100.00;99533.33;212502;1286;140969;-75
2023/12/01 08:06:32;;;;;;;111.60;49.50;;;;;;;-8.33;100.00;99535.14;212731;1290;141212;-75
2023/12/01 08:12:07;;;;;;;177.30;74.70;;;;;;;-8.20;100.00;99532.33;213063;1286;140106;-74
2023/12/01 08:23:58;;;;;;;241.80;98.90;;;;;;;-7.79;100.00;99545.05;212539;1286;139307;-74
2023/12/01 08:29:51;;;;;;;;;;;;;;;;;;;;;
2023/12/01 08:35:50;;;;;;;270.90;111.10;;;;;;;-7.14;100.00;99554.52;212545;1286;140014;-76
2023/12/01 08:41:53;;;;;;;212.70;91.50;;;;;;;-6.81;100.00;99552.38;212781;1286;139616;-75
2023/12/01 08:47:53;;;;;;;194.60;80.80;;;;;;;-6.61;100.00;99554.55;212755;1290;141644;-76
2023/12/01 08:53:54;;;;;;;164.80;72.70;;;;;;;-6.46;100.00;99560.52;213964;1291;140483;-74
2023/12/01 08:59:49;;;;;;;149.70;67.40;;;;;;;-6.30;100.00;99572.89;212863;1291;140862;-76
2023/12/01 09:05:49;;;;;;;125.20;55.50;;;;;;;-6.08;100.00;99587.52;218722;1291;139359;-74
2023/12/01 09:11:50;;;;;;;126.30;56.30;;;;;;;-5.80;100.00;99592.37;212944;1291;365229;-75
2023/12/01 09:17:51;;;;;;;111.80;48.50;;;;;;;-5.47;100.00;99591.14;212247;1291;141055;-75
2023/12/01 09:23:52;;;;;;;106.20;46.00;;;;;;;-5.14;100.00;99591.13;212481;1286;140594;-76
2023/12/01 09:29:32;;;;;;;95.10;42.20;;;;;;;-4.85;100.00;99589.90;211861;1290;140435;-76
2023/12/01 09:35:48;;;;;;;102.50;41.70;;;;;;;-4.64;100.00;99591.92;212724;1291;97908;-75
2023/12/01 09:41:33;;;;;;;90.20;36.40;;;;;;;-4.46;100.00;99597.38;212960;1285;225192;-75
2023/12/01 09:47:20;;;;;;;70.40;30.90;;;;;;;-4.34;100.00;99592.55;208403;1291;5405161;-75
2023/12/01 09:53:20;;;;;;;;;;;;;;;;;;;;;
2023/12/01 09:59:16;;;;;;;;;;;;;;;;;;;;;
2023/12/01 10:05:13;;;;;;;71.40;30.90;;;;;;;-4.05;100.00;99582.64;212669;1286;97930;-76
2023/12/01 10:11:06;;;;;;;;;;;;;;;;;;;;;
2023/12/01 10:17:19;;;;;;;68.40;28.90;;;;;;;-3.84;100.00;99583.00;212778;1286;140574;-76
2023/12/01 10:23:18;;;;;;;;;;;;;;;;;;;;;
2023/12/01 10:29:23;;;;;;;60.20;26.70;;;;;;;-3.62;100.00;99572.73;212362;1286;141239;-77
2023/12/01 10:47:32;;;;;;;73.10;32.40;;;;;;;-3.25;100.00;99575.06;212144;1286;140522;-76
2023/12/01 10:53:25;;;;;;;;;;;;;;;;;;;;;
2023/12/01 10:59:26;;;;;;;;;;;;;;;;;;;;;
2023/12/01 11:05:13;;;;;;;75.30;35.00;;;;;;;-3.00;100.00;99579.05;213199;1285;139045;-76
2023/12/01 11:11:11;;;;;;;72.30;33.90;;;;;;;-2.95;100.00;99572.90;212699;1291;140121;-77
2023/12/01 11:23:25;;;;;;;54.40;23.30;;;;;;;-2.86;100.00;99573.52;213339;1285;140298;-77
2023/12/01 11:29:51;;;;;;;42.60;17.20;;;;;;;-2.81;100.00;99574.55;212354;1285;140846;-77
2023/12/01 11:35:46;;;;;;;37.40;16.80;;;;;;;-2.69;100.00;99570.80;212743;1286;139127;-77
2023/12/01 11:41:43;;;;;;;35.50;15.50;;;;;;;-2.56;100.00;99578.58;211692;1297;245894;-78
2023/12/01 11:47:27;;;;;;;41.90;16.90;;;;;;;-2.45;100.00;99570.09;211067;1297;140180;-77
2023/12/01 11:53:20;;;;;;;41.60;18.20;;;;;;;-2.30;100.00;99569.54;212225;1288;139235;-78
2023/12/01 11:59:08;;;;;;;47.00;20.00;;;;;;;-2.20;100.00;99573.05;212413;1287;140637;-79
2023/12/01 12:04:37;;;;;;;45.30;20.90;;;;;;;-2.05;100.00;99578.66;212449;1290;139843;-79
2023/12/01 12:10:55;;;;;;;48.40;21.30;;;;;;;-1.93;100.00;99577.00;212184;1287;140897;-78
2023/12/01 12:16:57;;;;;;;27.40;13.50;;;;;;;-1.81;100.00;99579.59;212486;1286;140826;-78
2023/12/01 12:22:58;;;;;;;41.40;18.60;;;;;;;-1.71;100.00;99582.95;212229;1288;139840;-79
2023/12/01 12:28:59;;;;;;;39.40;18.00;;;;;;;-1.63;100.00;99576.45;211938;1287;140419;-78
2023/12/01 12:34:59;;;;;;;37.30;18.00;;;;;;;-1.58;100.00;99580.39;212315;1290;139544;-77
2023/12/01 12:40:51;;;;;;;;;;;;;;;;;;;;;
2023/12/01 12:46:39;;;;;;;28.80;13.30;;;;;;;-1.58;100.00;99580.10;211889;1290;142057;-77
2023/12/01 12:52:40;;;;;;;32.40;14.30;;;;;;;-1.59;100.00;99577.66;212883;1290;139189;-78
2023/12/01 12:58:27;;;;;;;34.60;14.90;;;;;;;-1.62;100.00;99567.83;212688;1292;140854;-78
2023/12/01 13:04:20;;;;;;;35.60;16.80;;;;;;;-1.67;100.00;99567.34;213162;1291;139058;-78
2023/12/01 13:10:22;;;;;;;30.50;15.20;;;;;;;-1.73;100.00;99571.05;212033;1290;140422;-77
2023/12/01 13:16:20;;;;;;;37.30;17.90;;;;;;;-1.76;100.00;99568.77;213468;1288;140364;-78
2023/12/01 13:21:49;;;;;;;;;;;;;;;-1.81;100.00;99572.10;213445;1291;139612;-77
2023/12/01 13:33:52;;;;;;;43.60;20.00;;;;;;;-1.90;100.00;99572.05;213461;1289;139458;-78
2023/12/01 13:39:51;;;;;;;47.40;22.30;;;;;;;-1.96;100.00;99568.78;214206;1289;141233;-78
2023/12/01 13:45:53;;;;;;;49.90;22.50;;;;;;;-2.01;100.00;99570.62;212968;1286;140311;-77
2023/12/01 13:51:56;;;;;;;48.80;23.10;;;;;;;-2.05;100.00;99572.06;212796;1291;390059;-78
2023/12/01 13:57:55;;;;;;;58.40;24.40;;;;;;;-2.12;100.00;99574.81;212806;1286;140821;-77
2023/12/01 14:03:38;;;;;;;59.00;28.30;;;;;;;-2.16;100.00;99585.11;213163;1292;139607;-78
2023/12/01 14:09:19;;;;;;;;;;;;;;;;;;;;;
2023/12/01 14:14:55;;;;;;;59.20;25.60;;;;;;;-2.27;100.00;99584.00;213664;1291;139690;-78
2023/12/01 14:20:57;;;;;;;53.20;26.80;;;;;;;-2.40;100.00;99585.54;212694;1289;140916;-77
2023/12/01 14:26:50;;;;;;;71.80;30.50;;;;;;;-2.53;100.00;99598.40;213014;1292;140852;-77
2023/12/01 14:32:45;;;;;;;;;;;;;;;;;;;;;
2023/12/01 14:38:42;;;;;;;72.80;31.40;;;;;;;-2.64;100.00;99609.26;212474;1289;141148;-76
2023/12/01 14:44:44;;;;;;;85.20;34.50;;;;;;;-2.76;100.00;99605.92;213618;1291;139333;-77
2023/12/01 14:50:35;;;;;;;80.40;36.00;;;;;;;-2.90;100.00;99606.30;212378;1292;141743;-77
2023/12/01 14:56:34;;;;;;;;;;;;;;;;;;;;;
2023/12/01 15:02:08;;;;;;;;;;;;;;;;;;;;;
2023/12/01 15:08:10;;;;;;;118.90;55.80;;;;;;;-3.17;100.00;99630.29;212517;1292;141655;-77
2023/12/01 15:14:10;;;;;;;;;;;;;;;;;;;;;
2023/12/01 15:20:11;;;;;;;110.30;48.70;;;;;;;-3.30;100.00;99651.04;212714;1291;141216;-77
2023/12/01 15:26:02;;;;;;;;;;;;;;;;;;;;;
2023/12/01 15:32:05;;;;;;;104.10;44.10;;;;;;;-3.58;100.00;99646.47;213386;1286;139294;-76
2023/12/01 15:37:51;;;;;;;123.90;48.40;;;;;;;-3.71;100.00;99651.30;212856;1289;140776;-76
2023/12/01 15:43:50;;;;;;;;;;;;;;;;;;;;;
2023/12/01 15:49:37;;;;;;;;;;;;;;;;;;;;;
2023/12/01 15:55:39;;;;;;;83.80;38.70;;;;;;;-3.97;100.00;99633.20;213122;1291;139360;-76
2023/12/01 16:01:32;;;;;;;;;;;;;;;;;;;;;
2023/12/01 16:07:35;;;;;;;88.10;44.70;;;;;;;-4.16;100.00;99635.65;212345;1291;141226;-76
2023/12/01 16:13:27;;;;;;;75.70;36.80;;;;;;;-4.18;100.00;99638.64;212897;1292;139263;-76
2023/12/01 16:19:30;;;;;;;73.80;36.10;;;;;;;-4.22;100.00;99641.78;212190;1292;140767;-76
2023/12/01 16:25:24;;;;;;;51.00;26.50;;;;;;;-4.29;100.00;99656.17;213430;1285;140215;-76
2023/12/01 16:31:17;;;;;;;;;;;;;;;;;;;;;
2023/12/01 16:37:19;;;;;;;56.20;26.10;;;;;;;-4.44;100.00;99660.85;213195;1286;140326;-76
2023/12/01 16:43:14;;;;;;;53.60;26.70;;;;;;;-4.43;100.00;99668.41;213647;1298;139351;-75
2023/12/01 16:49:14;;;;;;;49.40;26.10;;;;;;;-4.45;100.00;99665.02;215232;1289;140716;-75
2023/12/01 16:55:14;;;;;;;;;;;;;;;;;;;;;
2023/12/01 17:01:16;;;;;;;59.60;27.80;;;;;;;-4.54;100.00;99674.04;213237;1289;140720;-75
2023/12/01 17:07:17;;;;;;;48.80;26.30;;;;;;;-4.53;100.00;99673.00;213218;1290;141276;-75
2023/12/01 17:13:16;;;;;;;;;;;;;;;;;;;;;
2023/12/01 17:19:18;;;;;;;;;;;;;;;;;;;;;
2023/12/01 17:25:21;;;;;;;58.20;27.60;;;;;;;-4.53;100.00;99685.14;212968;1288;139637;-76
2023/12/01 17:31:22;;;;;;;58.70;28.20;;;;;;;-4.52;100.00;99697.95;212626;1292;140916;-76
2023/12/01 17:43:17;;;;;;;79.90;34.70;;;;;;;-4.59;100.00;99697.33;213412;1286;139172;-76
2023/12/01 17:49:19;;;;;;;86.30;37.20;;;;;;;-4.57;100.00;99693.27;212371;1286;141021;-76
2023/12/01 17:55:12;;;;;;;;;;;;;;;;;;;;;
2023/12/01 18:01:22;;;;;;;88.30;35.70;;;;;;;-4.58;100.00;99685.27;212641;1289;140601;-74
2023/12/01 18:07:22;;;;;;;73.80;34.20;;;;;;;-4.59;100.00;99702.20;212731;1289;140519;-75
2023/12/01 18:13:09;;;;;;;70.90;33.60;;;;;;;-4.63;100.00;99707.82;213043;1289;139199;-76
2023/12/01 18:19:09;;;;;;;93.60;39.50;;;;;;;-4.63;100.00;99720.21;212483;1291;140659;-76
2023/12/01 18:25:10;;;;;;;106.40;41.30;;;;;;;-4.63;100.00;99707.23;213386;1290;139633;-76
2023/12/01 18:31:11;;;;;;;124.00;47.80;;;;;;;-4.63;100.00;99715.59;212586;1288;140802;-76
2023/12/01 18:37:13;;;;;;;118.30;48.80;;;;;;;-4.63;100.00;99731.05;212329;1288;141350;-76
2023/12/01 18:43:12;;;;;;;;;;;;;;;;;;;;;
2023/12/01 18:49:12;;;;;;;;;;;;;;;;;;;;;
2023/12/01 18:55:15;;;;;;;106.30;50.70;;;;;;;-4.66;100.00;99708.61;213221;1289;139564;-76
2023/12/01 19:01:15;;;;;;;;;;;;;;;;;;;;;
2023/12/01 19:07:18;;;;;;;118.90;53.90;;;;;;;-4.65;100.00;99688.73;212392;1288;140807;-76
2023/12/01 19:13:08;;;;;;;;;;;;;;;;;;;;;
2023/12/01 19:19:19;;;;;;;129.90;62.50;;;;;;;-4.62;100.00;99691.25;212475;1299;141220;-76
2023/12/01 19:25:20;;;;;;;133.10;59.40;;;;;;;-4.62;100.00;99682.19;213003;1286;139463;-76
2023/12/01 19:31:14;;;;;;;147.70;63.20;;;;;;;-4.61;100.00;99695.00;212661;1291;141099;-76
2023/12/01 19:37:14;;;;;;;136.00;54.50;;;;;;;-4.60;100.00;99710.39;212889;1291;141931;-75
2023/12/01 19:43:15;;;;;;;117.10;50.10;;;;;;;-4.59;100.00;99698.19;213771;1289;139365;-76
2023/12/01 19:55:19;;;;;;;130.00;56.30;;;;;;;-4.58;100.00;99715.89;212729;1289;139754;-75
2023/12/01 20:01:20;;;;;;;133.10;60.60;;;;;;;-4.64;100.00;99727.55;212726;1286;140515;-76
2023/12/01 20:07:21;;;;;;;125.70;55.00;;;;;;;-4.65;100.00;99720.52;212685;1289;141254;-78
2023/12/01 20:13:14;;;;;;;;;;;;;;;;;;;;;
2023/12/01 20:18:54;;;;;;;131.00;59.60;;;;;;;-4.69;100.00;99701.64;213670;1287;140729;-78
2023/12/01 20:24:52;;;;;;;;;;;;;;;;;;;;;
2023/12/01 20:30:55;;;;;;;136.30;56.20;;;;;;;-4.76;100.00;99687.96;212890;1286;140738;-78
2023/12/01 20:36:56;;;;;;;228.40;94.60;;;;;;;-4.75;100.00;99702.00;212798;1288;141208;-78
2023/12/01 20:42:58;;;;;;;186.00;85.60;;;;;;;-4.76;100.00;99696.65;213112;1289;140433;-78
2023/12/01 20:48:59;;;;;;;151.10;71.10;;;;;;;-4.76;100.00;99694.52;212298;1289;141467;-77
2023/12/01 20:55:02;;;;;;;143.00;65.10;;;;;;;-4.77;100.00;99697.80;215484;1288;139344;-77
2023/12/01 21:00:45;;;;;;;130.40;63.00;;;;;;;-4.82;100.00;99696.06;218161;1285;142399;-78
2023/12/01 21:06:39;;;;;;;;;;;;;;;;;;;;;
2023/12/01 21:12:39;;;;;;;;;;;;;;;;;;;;;
2023/12/01 21:18:43;;;;;;;88.20;37.60;;;;;;;-4.71;100.00;99696.89;212656;1286;140950;-77
2023/12/01 21:24:36;;;;;;;;;;;;;;;;;;;;;
2023/12/01 21:30:35;;;;;;;;;;;;;;;;;;;;;
2023/12/01 21:36:38;;;;;;;84.80;39.40;;;;;;;-4.72;100.00;99711.35;212461;1291;141059;-76
2023/12/01 21:48:40;;;;;;;93.60;37.00;;;;;;;-4.77;100.00;99710.63;208472;1289;140863;-77
2023/12/01 21:54:42;;;;;;;87.90;38.40;;;;;;;-4.78;100.00;99717.36;212830;1292;107985;-77
2023/12/01 22:06:44;;;;;;;91.40;39.20;;;;;;;-4.90;100.00;99724.97;212669;1289;140695;-78
2023/12/01 22:12:45;;;;;;;83.60;37.70;;;;;;;-4.90;100.00;99727.22;213399;1285;141902;-79
2023/12/01 22:18:47;;;;;;;95.80;40.50;;;;;;;-4.91;100.00;99721.86;212530;1286;140659;-78
2023/12/01 22:24:47;;;;;;;;;;;;;;;;;;;;;
2023/12/01 22:30:49;;;;;;;120.60;52.20;;;;;;;-4.88;100.00;99719.88;213268;1288;142381;-79
2023/12/01 22:36:50;;;;;;;112.80;45.90;;;;;;;-4.87;100.00;99723.25;212634;1288;248128;-76
2023/12/01 22:42:51;;;;;;;107.10;43.30;;;;;;;-4.88;100.00;99726.65;212996;1291;104737;-79
2023/12/01 22:48:51;;;;;;;111.40;43.40;;;;;;;-4.88;100.00;99732.12;212576;1286;141117;-78
2023/12/01 22:54:52;;;;;;;97.60;41.60;;;;;;;-4.88;100.00;99729.11;212885;1289;139512;-78
2023/12/01 23:00:54;;;;;;;103.00;42.50;;;;;;;-4.89;100.00;99723.34;213627;1289;140651;-76
2023/12/01 23:06:55;;;;;;;100.90;41.20;;;;;;;-4.87;100.00;99715.73;212547;1287;141234;-78
2023/12/01 23:12:56;;;;;;;84.60;37.10;;;;;;;-4.87;100.00;99717.45;213289;1289;96662;-78
2023/12/01 23:18:50;;;;;;;89.40;37.80;;;;;;;-4.87;100.00;99716.48;212318;1285;140780;-78
2023/12/01 23:24:43;;;;;;;;;;;;;;;;;;;;;
2023/12/01 23:30:44;;;;;;;87.50;38.80;;;;;;;-4.84;100.00;99715.73;215756;1285;140971;-77
2023/12/01 23:36:45;;;;;;;94.50;41.20;;;;;;;-4.83;100.00;99717.02;218548;1285;140647;-78
2023/12/01 23:42:43;;;;;;;;;;;;;;;;;;;;;
2023/12/01 23:48:46;;;;;;;96.30;40.20;;;;;;;-4.77;100.00;99701.45;218467;1285;141563;-78
2023/12/01 23:54:38;;;;;;;;;;;;;;;;;;;;;
